createdAt,value
2023-03-12T00:00:40.315Z,3.89
2023-03-12T00:03:34.861Z,3.76
2023-03-12T00:06:10.538Z,3.75
2023-03-12T00:08:45.491Z,3.66
2023-03-12T00:11:16.993Z,3.61
2023-03-12T00:14:03.025Z,3.71
2023-03-12T00:16:46.748Z,3.50
2023-03-12T00:19:27.834Z,3.45
2023-03-12T00:22:02.294Z,3.30
2023-03-12T00:24:58.211Z,3.49
2023-03-12T00:27:29.479Z,3.28
2023-03-12T00:30:00.982Z,3.31
2023-03-12T00:32:37.310Z,3.49
2023-03-12T00:35:09.283Z,3.50
2023-03-12T00:37:44.301Z,3.40
2023-03-12T00:40:18.789Z,3.33
2023-03-12T00:42:52.692Z,3.70
2023-03-12T00:45:21.311Z,3.58
2023-03-12T00:47:54.916Z,3.62
2023-03-12T00:50:22.745Z,3.85
2023-03-12T00:52:51.939Z,3.87
2023-03-12T00:55:22.161Z,3.95
2023-03-12T00:57:53.003Z,3.70
2023-03-12T01:00:21.739Z,3.79
2023-03-12T01:02:53.516Z,3.61
2023-03-12T01:05:29.202Z,3.56
2023-03-12T01:08:05.284Z,3.62
2023-03-12T01:10:45.919Z,3.62
2023-03-12T01:13:41.499Z,3.45
2023-03-12T01:16:16.009Z,3.40
2023-03-12T01:19:12.185Z,3.59
2023-03-12T01:21:48.052Z,3.36
2023-03-12T01:24:18.912Z,3.53
2023-03-12T01:26:50.154Z,3.29
2023-03-12T01:29:19.491Z,3.35
2023-03-12T01:31:55.760Z,3.40
2023-03-12T01:34:30.988Z,3.43
2023-03-12T01:37:03.045Z,3.54
2023-03-12T01:39:36.123Z,3.56
2023-03-12T01:42:07.711Z,3.08
2023-03-12T01:44:55.321Z,3.25
2023-03-12T01:47:33.922Z,3.35
2023-03-12T01:50:16.954Z,3.26
2023-03-12T01:52:50.112Z,3.21
2023-03-12T01:55:24.905Z,3.44
2023-03-12T01:58:08.495Z,3.15
2023-03-12T02:00:40.846Z,3.17
2023-03-12T02:03:22.127Z,3.19
2023-03-12T02:06:22.328Z,3.27
2023-03-12T02:08:57.286Z,3.28
2023-03-12T02:11:27.721Z,3.29
2023-03-12T02:14:04.126Z,3.19
2023-03-12T02:16:37.918Z,3.19
2023-03-12T02:19:25.191Z,3.11
2023-03-12T02:22:01.470Z,3.14
2023-03-12T02:24:45.674Z,3.12
2023-03-12T02:27:20.008Z,3.35
2023-03-12T02:30:02.025Z,3.28
2023-03-12T02:32:41.067Z,3.39
2023-03-12T02:35:24.251Z,3.22
2023-03-12T02:37:59.164Z,3.20
2023-03-12T02:40:47.141Z,3.00
2023-03-12T02:43:32.482Z,2.89
2023-03-12T02:46:05.025Z,2.80
2023-03-12T02:48:38.868Z,2.90
2023-03-12T02:51:20.025Z,2.87
2023-03-12T02:54:26.122Z,2.72
2023-03-12T02:56:54.924Z,2.76
2023-03-12T02:59:29.812Z,2.79
2023-03-12T03:02:09.917Z,2.92
2023-03-12T03:05:02.311Z,2.94
2023-03-12T03:07:33.692Z,2.97
2023-03-12T03:10:04.702Z,2.70
2023-03-12T03:12:42.290Z,2.72
2023-03-12T03:15:12.087Z,2.77
2023-03-12T03:17:43.606Z,2.61
2023-03-12T03:20:18.301Z,2.70
2023-03-12T03:22:52.326Z,2.72
2023-03-12T03:25:23.924Z,2.76
2023-03-12T03:27:59.376Z,2.77
2023-03-12T03:30:29.042Z,2.56
2023-03-12T03:32:59.969Z,2.52
2023-03-12T03:35:29.958Z,2.72
2023-03-12T03:37:59.615Z,2.73
2023-03-12T03:40:30.206Z,2.52
2023-03-12T03:43:04.924Z,2.48
2023-03-12T03:45:38.275Z,2.25
2023-03-12T03:48:12.031Z,2.23
2023-03-12T03:50:43.405Z,2.27
2023-03-12T03:53:16.769Z,2.40
2023-03-12T03:55:46.937Z,2.23
2023-03-12T03:58:21.106Z,2.46
2023-03-12T04:00:58.893Z,2.43
2023-03-12T04:03:29.026Z,2.26
2023-03-12T04:06:01.828Z,2.35
2023-03-12T04:08:37.599Z,2.53
2023-03-12T04:11:17.074Z,2.33
2023-03-12T04:13:46.081Z,2.34
2023-03-12T04:16:48.252Z,2.56
2023-03-12T04:19:18.667Z,2.65
2023-03-12T04:21:52.459Z,2.64
2023-03-12T04:27:57.922Z,2.36
2023-03-12T04:30:26.863Z,2.38
2023-03-12T04:32:57.344Z,2.36
2023-03-12T04:35:31.730Z,2.37
2023-03-12T04:38:12.634Z,2.18
2023-03-12T04:40:45.041Z,2.21
2023-03-12T04:43:16.262Z,2.15
2023-03-12T04:45:48.939Z,2.28
2023-03-12T04:48:23.670Z,2.13
2023-03-12T04:50:57.888Z,2.13
2023-03-12T04:53:27.936Z,2.22
2023-03-12T04:56:06.863Z,2.09
2023-03-12T04:58:41.184Z,2.15
2023-03-12T05:01:39.040Z,2.05
2023-03-12T05:04:18.076Z,2.17
2023-03-12T05:06:53.610Z,2.27
2023-03-12T05:09:23.507Z,2.27
2023-03-12T05:11:54.350Z,1.99
2023-03-12T05:14:28.705Z,2.29
2023-03-12T05:17:09.441Z,2.28
2023-03-12T05:20:07.099Z,2.26
2023-03-12T05:22:41.345Z,2.33
2023-03-12T05:25:14.232Z,2.31
2023-03-12T05:27:44.100Z,2.33
2023-03-12T05:30:13.799Z,2.58
2023-03-12T05:32:48.123Z,2.13
2023-03-12T05:35:24.464Z,2.41
2023-03-12T05:38:00.438Z,2.36
2023-03-12T05:40:36.250Z,2.35
2023-03-12T05:43:04.683Z,2.41
2023-03-12T05:45:34.104Z,3.63
2023-03-12T05:48:02.656Z,4.94
2023-03-12T05:50:35.537Z,6.58
2023-03-12T05:53:05.603Z,7.54
2023-03-12T05:55:47.094Z,8.61
2023-03-12T05:58:31.454Z,8.87
2023-03-12T06:01:14.966Z,10.06
2023-03-12T06:03:43.941Z,11.02
2023-03-12T06:06:11.972Z,10.76
2023-03-12T06:08:42.153Z,10.25
2023-03-12T06:11:35.978Z,9.94
2023-03-12T06:14:08.922Z,10.15
2023-03-12T06:16:51.857Z,10.69
2023-03-12T06:19:34.056Z,11.49
2023-03-12T06:22:13.356Z,12.34
2023-03-12T06:24:45.657Z,12.06
2023-03-12T06:27:21.169Z,11.57
2023-03-12T06:29:53.027Z,9.90
2023-03-12T06:32:49.348Z,11.38
2023-03-12T06:35:21.719Z,9.29
2023-03-12T06:37:50.341Z,9.82
2023-03-12T06:40:25.874Z,11.56
2023-03-12T06:42:56.392Z,10.94
2023-03-12T06:45:26.159Z,10.06
2023-03-12T06:51:14.086Z,10.14
2023-03-12T06:53:50.053Z,11.37
2023-03-12T06:56:19.038Z,10.36
2023-03-12T06:58:46.344Z,10.45
2023-03-12T07:01:14.224Z,9.75
2023-03-12T07:03:41.979Z,10.19
2023-03-12T07:06:17.571Z,10.07
2023-03-12T07:08:45.390Z,9.92
2023-03-12T07:11:13.857Z,9.09
2023-03-12T07:13:41.607Z,9.37
2023-03-12T07:16:09.559Z,8.15
2023-03-12T07:18:37.013Z,8.37
2023-03-12T07:21:10.794Z,7.93
2023-03-12T07:23:40.168Z,8.90
2023-03-12T07:26:08.059Z,8.86
2023-03-12T07:28:35.332Z,9.48
2023-03-12T07:31:05.017Z,8.08
2023-03-12T07:33:34.238Z,9.20
2023-03-12T07:36:03.693Z,9.22
2023-03-12T07:38:36.661Z,7.61
2023-03-12T07:41:32.355Z,6.79
2023-03-12T07:44:05.914Z,7.64
2023-03-12T07:46:38.185Z,7.10
2023-03-12T07:49:08.162Z,7.04
2023-03-12T07:51:41.373Z,6.66
2023-03-12T07:54:09.762Z,6.62
2023-03-12T07:56:40.094Z,6.38
2023-03-12T07:59:20.754Z,8.00
2023-03-12T08:01:48.788Z,8.66
2023-03-12T08:04:18.850Z,7.81
2023-03-12T08:06:56.903Z,8.72
2023-03-12T08:09:24.362Z,9.78
2023-03-12T08:11:52.182Z,9.86
2023-03-12T08:14:19.483Z,8.53
2023-03-12T08:16:47.707Z,8.79
2023-03-12T08:19:15.159Z,7.72
2023-03-12T08:21:47.107Z,7.56
2023-03-12T08:24:16.573Z,8.16
2023-03-12T08:26:48.210Z,8.31
2023-03-12T08:29:21.571Z,9.06
2023-03-12T08:32:04.207Z,9.15
2023-03-12T08:34:35.357Z,7.99
2023-03-12T08:37:06.979Z,7.75
2023-03-12T08:39:39.368Z,8.07
2023-03-12T08:42:22.804Z,8.52
2023-03-12T08:45:45.692Z,7.84
2023-03-12T08:48:27.785Z,7.40
2023-03-12T08:51:04.332Z,8.67
2023-03-12T08:53:57.191Z,9.82
2023-03-12T08:56:47.046Z,9.58
2023-03-12T08:59:42.809Z,10.28
2023-03-12T09:30:10.230Z,8.33
2023-03-12T10:14:57.804Z,10.48
2023-03-12T10:18:13.353Z,9.68
2023-03-12T10:21:39.020Z,9.82
2023-03-12T10:25:07.360Z,10.40
2023-03-12T10:27:39.960Z,9.60
2023-03-12T10:30:23.378Z,9.77
2023-03-12T10:33:03.538Z,9.61
2023-03-12T10:36:02.008Z,9.96
2023-03-12T10:38:34.599Z,10.30
2023-03-12T10:41:14.615Z,10.18
2023-03-12T10:43:44.116Z,9.56
2023-03-12T10:46:42.529Z,8.90
2023-03-12T10:49:32.492Z,9.76
2023-03-12T10:52:23.139Z,9.48
2023-03-12T10:54:57.316Z,9.57
2023-03-12T10:57:41.079Z,9.53
2023-03-12T11:00:22.450Z,9.93
2023-03-12T11:03:04.952Z,9.55
2023-03-12T11:05:52.445Z,10.59
2023-03-12T11:08:30.257Z,10.18
2023-03-12T11:11:00.716Z,10.24
2023-03-12T11:13:43.470Z,10.71
2023-03-12T11:16:21.382Z,10.47
2023-03-12T11:19:06.329Z,10.31
2023-03-12T11:21:37.239Z,10.67
2023-03-12T11:24:10.888Z,10.61
2023-03-12T11:26:58.324Z,10.31
2023-03-12T11:29:31.919Z,11.33
2023-03-12T11:32:18.904Z,10.88
2023-03-12T11:34:50.176Z,9.37
2023-03-12T11:37:57.083Z,10.05
2023-03-12T11:41:03.634Z,10.33
2023-03-12T11:43:53.916Z,10.48
2023-03-12T11:47:11.796Z,10.94
2023-03-12T11:49:49.947Z,11.14
2023-03-12T11:52:39.660Z,11.05
2023-03-12T11:55:34.463Z,11.21
2023-03-12T11:58:21.870Z,11.04
2023-03-12T12:01:15.153Z,11.84
2023-03-12T12:04:16.686Z,11.08
2023-03-12T12:07:11.642Z,10.57
2023-03-12T12:10:24.036Z,11.32
2023-03-12T12:13:16.824Z,10.90
2023-03-12T12:16:39.269Z,11.27
2023-03-12T12:19:24.805Z,11.18
2023-03-12T12:22:31.324Z,11.33
2023-03-12T12:25:33.035Z,11.96
2023-03-12T12:28:30.053Z,11.68
2023-03-12T12:31:36.399Z,11.38
2023-03-12T12:34:33.930Z,9.82
2023-03-12T12:37:47.097Z,9.74
2023-03-12T12:40:42.282Z,10.77
2023-03-12T12:43:28.426Z,11.05
2023-03-12T12:46:11.484Z,11.10
2023-03-12T12:48:50.606Z,11.29
2023-03-12T12:51:26.966Z,10.42
2023-03-12T12:54:01.271Z,10.33
2023-03-12T12:57:01.797Z,10.40
2023-03-12T12:59:52.357Z,10.18
2023-03-12T13:02:23.235Z,9.57
2023-03-12T13:04:51.320Z,9.13
2023-03-12T13:07:21.663Z,9.80
2023-03-12T13:09:53.549Z,10.16
2023-03-12T13:12:33.222Z,10.90
2023-03-12T13:15:03.124Z,10.41
2023-03-12T13:17:56.575Z,10.89
2023-03-12T13:20:57.536Z,10.99
2023-03-12T13:23:52.198Z,9.85
2023-03-12T13:26:58.085Z,9.51
2023-03-12T13:29:36.543Z,10.09
2023-03-12T13:32:06.111Z,9.43
2023-03-12T13:34:46.362Z,8.99
2023-03-12T13:37:28.945Z,8.49
2023-03-12T13:40:02.150Z,8.85
2023-03-12T13:42:40.096Z,9.06
2023-03-12T13:45:25.543Z,8.87
2023-03-12T13:47:58.321Z,9.08
2023-03-12T13:50:26.235Z,10.24
2023-03-12T13:53:33.747Z,10.61
2023-03-12T13:56:18.365Z,9.95
2023-03-12T13:59:00.084Z,9.83
2023-03-12T14:01:31.636Z,10.23
2023-03-12T14:04:04.409Z,9.95
2023-03-12T14:06:50.389Z,9.10
2023-03-12T14:09:30.128Z,9.18
2023-03-12T14:12:20.284Z,9.22
2023-03-12T14:15:22.050Z,9.93
2023-03-12T14:18:00.032Z,10.15
2023-03-12T14:20:30.050Z,8.89
2023-03-12T14:23:06.258Z,9.14
2023-03-12T14:25:37.693Z,9.20
2023-03-12T14:28:17.459Z,9.73
2023-03-12T14:30:56.407Z,9.42
2023-03-12T14:33:26.051Z,9.69
2023-03-12T14:36:04.895Z,9.70
2023-03-12T14:39:26.156Z,9.67
2023-03-12T14:42:06.533Z,9.09
2023-03-12T14:44:37.289Z,8.65
2023-03-12T14:47:10.458Z,8.42
2023-03-12T14:49:46.126Z,8.72
2023-03-12T14:52:28.552Z,8.28
2023-03-12T14:55:01.559Z,8.51
2023-03-12T14:57:33.169Z,8.18
2023-03-12T15:00:28.362Z,8.30
2023-03-12T15:03:07.423Z,8.27
2023-03-12T15:05:50.041Z,8.14
2023-03-12T15:08:21.255Z,7.95
2023-03-12T15:10:57.263Z,7.31
2023-03-12T15:13:31.723Z,7.54
2023-03-12T15:16:06.698Z,8.01
2023-03-12T15:18:41.258Z,8.48
2023-03-12T15:21:15.783Z,8.64
2023-03-12T15:23:46.677Z,8.66
2023-03-12T15:26:20.136Z,9.04
2023-03-12T15:29:20.403Z,9.52
2023-03-12T15:31:53.482Z,9.19
2023-03-12T15:34:38.727Z,8.61
2023-03-12T15:37:39.186Z,8.58
2023-03-12T15:40:22.137Z,8.52
2023-03-12T15:42:59.384Z,8.40
2023-03-12T15:45:38.313Z,8.31
2023-03-12T15:48:35.134Z,8.45
2023-03-12T15:51:38.293Z,8.19
2023-03-12T15:54:27.957Z,7.96
2023-03-12T15:57:34.388Z,7.92
2023-03-12T16:00:21.022Z,7.93
2023-03-12T16:03:19.446Z,8.06
2023-03-12T16:05:48.949Z,8.20
2023-03-12T16:08:26.748Z,8.29
2023-03-12T16:10:55.792Z,8.21
2023-03-12T16:13:33.765Z,7.98
2023-03-12T16:16:05.862Z,7.86
2023-03-12T16:18:40.284Z,7.72
2023-03-12T16:21:09.132Z,7.74
2023-03-12T16:23:40.509Z,7.43
2023-03-12T16:26:15.423Z,7.11
2023-03-12T16:28:46.512Z,7.09
2023-03-12T16:31:16.197Z,7.05
2023-03-12T16:33:46.094Z,7.23
2023-03-12T16:36:23.562Z,7.17
2023-03-12T16:38:51.586Z,7.15
2023-03-12T16:41:21.604Z,7.21
2023-03-12T16:43:55.836Z,7.24
2023-03-12T16:46:23.968Z,7.11
2023-03-12T16:48:54.159Z,6.98
2023-03-12T16:51:34.174Z,6.90
2023-03-12T16:54:10.345Z,6.58
2023-03-12T16:56:48.199Z,6.37
2023-03-12T16:59:32.063Z,6.23
2023-03-12T17:02:30.817Z,6.09
2023-03-12T17:05:05.153Z,5.90
2023-03-12T17:07:41.109Z,5.66
2023-03-12T17:10:11.904Z,5.72
2023-03-12T17:12:48.275Z,5.67
2023-03-12T17:15:45.553Z,5.52
2023-03-12T17:18:17.712Z,5.43
2023-03-12T17:20:49.492Z,5.44
2023-03-12T17:23:18.238Z,5.65
2023-03-12T17:25:45.983Z,5.78
2023-03-12T17:28:17.158Z,5.80
2023-03-12T17:30:47.909Z,5.78
2023-03-12T17:33:20.902Z,5.69
2023-03-12T17:36:11.095Z,5.81
2023-03-12T17:38:38.568Z,5.65
2023-03-12T17:41:19.855Z,5.60
2023-03-12T17:44:01.876Z,5.57
2023-03-12T17:46:33.185Z,5.72
2023-03-12T17:49:09.861Z,5.34
2023-03-12T17:51:38.933Z,5.02
2023-03-12T17:54:37.106Z,4.97
2023-03-12T17:57:10.122Z,5.09
2023-03-12T17:59:44.025Z,5.34
2023-03-12T18:02:16.707Z,5.21
2023-03-12T18:04:45.618Z,5.20
2023-03-12T18:07:19.412Z,5.26
2023-03-12T18:09:50.137Z,5.15
2023-03-12T18:12:24.326Z,5.24
2023-03-12T18:15:08.664Z,5.48
2023-03-12T18:17:40.034Z,4.72
2023-03-12T18:20:37.683Z,5.02
2023-03-12T18:23:08.984Z,4.98
2023-03-12T18:25:46.776Z,4.78
2023-03-12T18:28:19.383Z,4.66
2023-03-12T18:31:16.820Z,4.76
2023-03-12T18:33:55.788Z,4.51
2023-03-12T18:36:27.770Z,4.44
2023-03-12T18:39:05.102Z,4.42
2023-03-12T18:41:36.647Z,4.51
2023-03-12T18:44:06.907Z,4.56
2023-03-12T18:46:39.229Z,4.70
2023-03-12T18:49:12.684Z,4.49
2023-03-12T18:51:41.959Z,4.34
2023-03-12T18:54:10.850Z,4.05
2023-03-12T18:56:42.139Z,4.00
2023-03-12T18:59:17.194Z,4.03
2023-03-12T19:01:48.277Z,4.07
2023-03-12T19:04:22.016Z,4.19
2023-03-12T19:06:59.598Z,3.98
2023-03-12T19:09:36.986Z,3.88
2023-03-12T19:12:39.437Z,4.00
2023-03-12T19:16:02.011Z,4.08
2023-03-12T19:18:34.434Z,4.12
2023-03-12T19:21:09.752Z,4.01
2023-03-12T19:23:40.802Z,4.05
2023-03-12T19:26:18.301Z,4.00
2023-03-12T19:28:55.369Z,3.98
2023-03-12T19:31:34.133Z,4.03
2023-03-12T19:34:04.982Z,4.18
2023-03-12T19:36:37.737Z,4.19
2023-03-12T19:39:44.482Z,3.99
2023-03-12T19:42:19.051Z,3.93
2023-03-12T19:44:52.107Z,3.96
2023-03-12T19:47:24.151Z,3.92
2023-03-12T19:49:53.707Z,3.92
2023-03-12T19:52:31.929Z,3.87
2023-03-12T19:55:05.678Z,3.91
2023-03-12T19:57:37.207Z,3.81
2023-03-12T20:00:38.468Z,3.80
2023-03-12T20:03:13.501Z,4.17
2023-03-12T20:05:47.776Z,4.12
2023-03-12T20:08:22.033Z,4.05
2023-03-12T20:10:53.284Z,4.07
2023-03-12T20:13:29.799Z,4.07
2023-03-12T20:16:04.815Z,4.06
2023-03-12T20:19:05.780Z,3.91
2023-03-12T20:21:41.221Z,3.70
2023-03-12T20:24:21.637Z,3.68
2023-03-12T20:26:55.766Z,3.54
2023-03-12T20:29:29.104Z,3.71
2023-03-12T20:32:35.015Z,3.56
2023-03-12T20:35:09.572Z,3.47
2023-03-12T20:37:42.018Z,3.51
2023-03-12T20:40:14.923Z,3.34
2023-03-12T20:42:48.281Z,3.53
2023-03-12T20:45:21.175Z,3.43
2023-03-12T20:47:53.824Z,3.47
2023-03-12T20:50:25.109Z,3.54
2023-03-12T20:52:58.127Z,3.47
2023-03-12T20:55:34.080Z,3.45
2023-03-12T20:58:03.787Z,3.62
2023-03-12T21:00:36.492Z,3.55
2023-03-12T21:03:06.054Z,3.64
2023-03-12T21:05:36.304Z,3.57
2023-03-12T21:09:27.841Z,3.48
2023-03-12T21:11:58.806Z,3.73
2023-03-12T21:14:30.230Z,3.55
2023-03-12T21:17:23.422Z,3.54
2023-03-12T21:19:56.892Z,3.44
2023-03-12T21:22:33.150Z,3.45
2023-03-12T21:25:08.181Z,3.46
2023-03-12T21:28:06.410Z,3.59
2023-03-12T21:31:05.597Z,4.06
2023-03-12T21:34:47.834Z,3.99
2023-03-12T21:37:21.036Z,4.00
2023-03-12T21:40:09.015Z,3.96
2023-03-12T21:43:15.999Z,4.00
2023-03-12T21:45:50.061Z,3.81
2023-03-12T21:48:25.640Z,3.49
2023-03-12T21:51:01.702Z,3.90
2023-03-12T21:53:41.570Z,3.83
2023-03-12T21:56:17.644Z,3.70
2023-03-12T21:58:50.786Z,3.92
2023-03-12T22:01:21.227Z,3.86
2023-03-12T22:03:57.281Z,3.67
2023-03-12T22:06:29.779Z,3.64
2023-03-12T22:09:25.973Z,3.67
2023-03-12T22:12:24.485Z,3.72
2023-03-12T22:15:04.041Z,3.86
2023-03-12T22:17:37.956Z,3.63
2023-03-12T22:20:44.255Z,3.50
2023-03-12T22:23:39.238Z,3.71
2023-03-12T22:26:20.407Z,3.71
2023-03-12T22:28:51.199Z,3.59
2023-03-12T22:31:48.986Z,3.33
2023-03-12T22:34:28.965Z,3.10
2023-03-12T22:37:08.230Z,3.16
2023-03-12T22:39:43.811Z,3.30
2023-03-12T22:42:15.525Z,3.10
2023-03-12T22:44:48.632Z,3.17
2023-03-12T22:48:00.575Z,3.14
2023-03-12T22:50:34.525Z,3.31
2023-03-12T22:53:06.388Z,3.37
2023-03-12T22:55:40.430Z,3.17
2023-03-12T22:58:11.998Z,3.27
2023-03-12T23:00:41.973Z,3.25
2023-03-12T23:03:39.399Z,3.43
2023-03-12T23:06:12.119Z,3.34
2023-03-12T23:08:43.922Z,3.19
2023-03-12T23:11:18.212Z,3.08
2023-03-12T23:13:54.018Z,3.27
2023-03-12T23:17:06.490Z,3.27
2023-03-12T23:19:40.324Z,3.45
2023-03-12T23:22:11.404Z,3.48
2023-03-12T23:24:40.498Z,3.49
2023-03-12T23:27:11.134Z,3.41
2023-03-12T23:29:39.166Z,3.50
2023-03-12T23:32:09.366Z,3.09
2023-03-12T23:34:39.060Z,3.11
2023-03-12T23:37:10.308Z,3.01
2023-03-12T23:39:53.434Z,2.86
2023-03-12T23:42:27.358Z,2.94
2023-03-12T23:45:00.923Z,2.97
2023-03-12T23:47:32.074Z,3.03
2023-03-12T23:50:06.376Z,2.85
2023-03-12T23:52:37.706Z,2.93
2023-03-12T23:55:07.174Z,2.83
2023-03-12T23:57:36.246Z,3.24
